ESMS/MMX METAR and TAF weather

Enter ICAO airport designator
Station Type Date Time Source
ESMS METAR 2020/09/25 05:50 UTC NOAA

ESMS 250550Z 09010KT 7000 SCT005 14/13 Q0999


Station Type Date Time Source
ESMS Decoded METAR 2020/09/25 05:50 UTC NOAA

Malmo / Sturup, Sweden (ESMS) 55-33N 013-22E
Sep 25, 2020 - 01:50 AM EDT / 2020.09.25 0550 UTC
Wind: from the E (090 degrees) at 12 MPH (10 KT):0
Visibility: 4 mile(s):0
Sky conditions: partly cloudy
Temperature: 57 F (14 C)
Dew Point: 55 F (13 C)
Relative Humidity: 93%
Pressure (altimeter): 29.50 in. Hg (0999 hPa)
ob: ESMS 250550Z 09010KT 7000 SCT005 14/13 Q0999
cycle: 6

Station Type Date Time Source
ESMS TAF 2020/09/25 06:15 UTC NOAA

TAF ESMS 250510Z 2506/2606 10010KT 9999 FEW030
TEMPO 2511/2517 08015G30KT 3000 RA BKN008 BKN020CB
BECMG 2517/2519 24008KT
TEMPO 2517/2606 4000 BR BKN008

Example: see airport list